• Join FlightAware (Why Join?)
  • Login
  • US Flag 
10:49PM EDT


 

Airport Tracker/Info


-or-


 

Live Flight TrackerFlight Track Log ✈ DAL6201 ✈ 18-Apr-2013 ✈ KPIT - KLGA

Flight Track Log - Related Links

Times and Time Zones

All times are in EDT time to prevent confusion due to time zone crossing. See the DAL6201 flight status page for this flight to view local times or setup timezone preferences in your user account.

Time Position Orientation Groundspeed Altitude Reporting Facility
EDT Latitude Longitude Course Direction KTS MPH feet Rate Location/Type
07:17PM 40.5567 -80.2769 74° East 232 267 4,800  Level Cleveland Center
07:18PM 40.5750 -80.1839 75° East 188 216 6,900 2,100 Climbing Cleveland Center
07:19PM 40.5850 -80.0772 83° East 230 265 9,100 2,100 Climbing Cleveland Center
07:20PM 40.5969 -79.9597 82° East 278 320 11,200 1,800 Climbing Cleveland Center
07:21PM 40.6089 -79.8256 83° East 325 374 12,700 1,800 Climbing Cleveland Center
07:22PM 40.5489 -79.4002 80° East  Level Estimated
07:22PM 40.6222 -79.6803 83° East 370 426 14,900  Level Cleveland Center
07:23PM 40.5773 -79.2659 74° East  Level FlightAware Approximate
07:23PM 40.6336 -79.5381 84° East 387 445 17,400  Level Cleveland Center
07:24PM 40.6489 -79.3900 82° East 394 453 19,200 1,620 Climbing Cleveland Center
07:25PM 40.6617 -79.2364 84° East 405 466 20,700 1,500 Climbing Cleveland Center
07:26PM 40.6744 -79.0803 84° East 416 479 22,200 1,500 Climbing Cleveland Center
07:27PM 40.6847 -78.9347 85° East 429 494 23,700 1,500 Climbing Cleveland Center
07:28PM 40.6992 -78.7756 83° East 434 499 25,200 660 Climbing Cleveland Center
07:32PM 40.8125 -78.1856 76° East 453 521 27,000 360 Climbing New York Center
07:33PM 40.8881 -78.0456 54° Northeast 464 534 27,000  Level New York Center
07:34PM 40.9247 -77.8844 73° East 451 519 27,000  Level New York Center
07:35PM 40.9389 -77.7156 84° East 451 519 27,000  Level New York Center
07:36PM 40.9550 -77.5469 83° East 456 525 27,000  Level New York Center
07:37PM 40.9689 -77.3722 84° East 462 532 27,000  Level New York Center
07:38PM 40.9806 -77.2003 85° East 462 532 27,000  Level New York Center
07:39PM 40.9942 -77.0256 84° East 469 540 27,000 -540 Level New York Center
07:40PM 41.0053 -76.8533 85° East 474 545 26,000 -4,500 Descending New York Center
07:41PM 41.0178 -76.6839 84° East 474 545 18,000 -2,280 Descending New York Center
07:42PM 40.9881 -76.5272 104° East 450 518 21,400 780 Climbing New York Center
07:43PM 40.9517 -76.3758 108° East 433 498 19,600 -1,860 Descending New York Center
07:44PM 40.9169 -76.2247 107° East 428 493 17,800 -1,920 Descending New York Center
07:45PM 40.8767 -76.0567 108° East 433 498 15,900 -1,680 Descending New York Center
07:46PM 40.8428 -75.9253 109° East 433 498 14,400 -1,500 Descending New York Center
07:47PM 40.8075 -75.7772 107° East 401 461 13,000 -780 Descending New York Center
07:48PM 40.7736 -75.6458 109° East 383 441 12,900  Descending New York Center
07:49PM 40.7414 -75.5122 108° East 383 441 13,000  Climbing New York Center
07:50PM 40.7114 -75.3758 106° East 383 441 12,900 -660 Descending New York Center
07:51PM 40.6833 -75.2372 105° East 389 448 11,700 -1,140 Descending New York Center
07:52PM 40.6419 -75.1169 114° Southeast 374 430 10,700 -900 Descending New York Center
07:53PM 40.5806 -75.0283 132° Southeast 361 415 10,000 -420 Descending New York Center
07:54PM 40.5411 -74.9139 114° Southeast 347 399 9,900  Descending New York Center
07:55PM 40.5167 -74.8167 108° East 298 343 10,100 -420 Climbing New York TRACON
07:56PM 40.4833 -74.7167 114° Southeast 302 348 9,200 -540 Descending New York TRACON
07:57PM 40.4500 -74.6167 114° Southeast 287 330 9,100 -120 Descending New York TRACON
07:58PM 40.4333 -74.5333 105° East 251 289 9,000 -540 Descending New York TRACON
07:59PM 40.4000 -74.4500 118° Southeast 249 287 8,100 -540 Descending New York TRACON
08:00PM 40.3833 -74.3833 108° East 211 243 8,000 -540 Descending New York TRACON
08:01PM 40.3833 -74.3000 90° East 229 264 7,100 -480 Descending New York TRACON
08:02PM 40.4000 -74.2333 72° East 227 261 7,100 -120 Level New York TRACON
08:03PM 40.4333 -74.1500 62° Northeast 233 268 6,900 -840 Descending New York TRACON
08:04PM 40.5000 -74.1167 21° North 236 272 5,400 -1,380 Descending New York TRACON
08:05PM 40.5667 -74.0833 21° North 235 270 4,100 -660 Descending New York TRACON
08:06PM 40.6167 -74.0833 360° North 222 255 4,100  Level New York TRACON
08:07PM 40.6833 -74.0667 11° North 220 253 4,100  Level New York TRACON
08:08PM 40.7333 -74.0333 27° Northeast 232 267 4,100  Level New York TRACON
08:09PM 40.8000 -74.0000 21° North 230 265 4,100  Level New York TRACON
08:10PM 40.8500 -73.9500 37° Northeast 225 259 4,100  Level New York TRACON
08:11PM 40.9167 -73.9167 21° North 229 264 4,100  Level New York TRACON
08:12PM 40.9667 -73.8833 27° Northeast 221 254 4,100  Level New York TRACON
08:13PM 41.0000 -73.8333 49° Northeast 221 254 4,100  Level New York TRACON
08:14PM 41.0333 -73.7667 56° Northeast 227 261 4,100  Level New York TRACON
08:15PM 41.0167 -73.7000 108° East 195 224 4,100  Level New York TRACON
08:16PM 40.9833 -73.7000 180° South 157 181 4,100 -60 Level New York TRACON
08:17PM 40.9500 -73.7333 217° Southwest 156 180 4,000 -600 Descending New York TRACON
08:18PM 40.9167 -73.7667 217° Southwest 162 186 3,000 -960 Descending New York TRACON
08:19PM 40.8667 -73.8000 207° Southwest 163 188 2,100 -840 Descending New York TRACON